sensor_id;sensor_type;location;lat;lon;timestamp;temperature;humidity
10980;DHT22;5543;51.734;8.744;2022-11-20T00:01:51;-4.60;99.90
10980;DHT22;5543;51.734;8.744;2022-11-20T00:04:19;-4.60;99.90
10980;DHT22;5543;51.734;8.744;2022-11-20T00:06:47;-4.60;99.90
10980;DHT22;5543;51.734;8.744;2022-11-20T00:09:15;-4.60;99.90
10980;DHT22;5543;51.734;8.744;2022-11-20T00:11:43;-4.60;99.90
10980;DHT22;5543;51.734;8.744;2022-11-20T00:14:13;-4.60;99.90
10980;DHT22;5543;51.734;8.744;2022-11-20T00:16:41;-4.60;99.90
10980;DHT22;5543;51.734;8.744;2022-11-20T00:19:09;-4.30;99.90
10980;DHT22;5543;51.734;8.744;2022-11-20T00:21:38;-4.60;99.90
10980;DHT22;5543;51.734;8.744;2022-11-20T00:24:09;-4.60;99.90
10980;DHT22;5543;51.734;8.744;2022-11-20T00:26:37;-4.60;99.90
10980;DHT22;5543;51.734;8.744;2022-11-20T00:29:05;-4.60;99.90
10980;DHT22;5543;51.734;8.744;2022-11-20T00:31:35;-4.60;99.90
10980;DHT22;5543;51.734;8.744;2022-11-20T00:34:03;-4.60;99.90
10980;DHT22;5543;51.734;8.744;2022-11-20T00:36:33;-4.50;99.90
10980;DHT22;5543;51.734;8.744;2022-11-20T00:39:02;-4.60;99.90
10980;DHT22;5543;51.734;8.744;2022-11-20T00:41:30;-4.60;99.90
10980;DHT22;5543;51.734;8.744;2022-11-20T00:43:58;-4.50;99.90
10980;DHT22;5543;51.734;8.744;2022-11-20T00:46:27;-4.60;99.90
10980;DHT22;5543;51.734;8.744;2022-11-20T00:48:57;-4.60;99.90
10980;DHT22;5543;51.734;8.744;2022-11-20T00:51:26;-4.60;99.90
10980;DHT22;5543;51.734;8.744;2022-11-20T00:53:56;-4.50;99.90
10980;DHT22;5543;51.734;8.744;2022-11-20T00:56:24;-4.70;99.90
10980;DHT22;5543;51.734;8.744;2022-11-20T00:58:52;-4.70;99.90
10980;DHT22;5543;51.734;8.744;2022-11-20T01:01:22;-4.70;99.90
10980;DHT22;5543;51.734;8.744;2022-11-20T01:03:52;-4.70;99.90
10980;DHT22;5543;51.734;8.744;2022-11-20T01:06:23;-4.70;99.90
10980;DHT22;5543;51.734;8.744;2022-11-20T01:08:53;-4.80;99.90
10980;DHT22;5543;51.734;8.744;2022-11-20T01:11:24;-4.50;99.90
10980;DHT22;5543;51.734;8.744;2022-11-20T01:13:53;-4.40;99.90
10980;DHT22;5543;51.734;8.744;2022-11-20T01:16:23;-4.70;99.90
10980;DHT22;5543;51.734;8.744;2022-11-20T01:18:53;-4.70;99.90
10980;DHT22;5543;51.734;8.744;2022-11-20T01:21:25;-4.50;99.90
10980;DHT22;5543;51.734;8.744;2022-11-20T01:23:54;-4.40;99.90
10980;DHT22;5543;51.734;8.744;2022-11-20T01:26:23;-4.60;99.90
10980;DHT22;5543;51.734;8.744;2022-11-20T01:28:53;-4.60;99.90
10980;DHT22;5543;51.734;8.744;2022-11-20T01:31:23;-4.50;99.90
10980;DHT22;5543;51.734;8.744;2022-11-20T01:33:53;-4.70;99.90
10980;DHT22;5543;51.734;8.744;2022-11-20T01:36:25;-4.60;99.90
10980;DHT22;5543;51.734;8.744;2022-11-20T01:38:54;-4.70;99.90
10980;DHT22;5543;51.734;8.744;2022-11-20T01:41:24;-4.70;99.90
10980;DHT22;5543;51.734;8.744;2022-11-20T01:44:11;-4.40;99.90
10980;DHT22;5543;51.734;8.744;2022-11-20T01:46:51;-4.60;99.90
10980;DHT22;5543;51.734;8.744;2022-11-20T01:49:23;-4.60;99.90
10980;DHT22;5543;51.734;8.744;2022-11-20T01:51:57;-4.60;99.90
10980;DHT22;5543;51.734;8.744;2022-11-20T01:54:31;-4.60;99.90
10980;DHT22;5543;51.734;8.744;2022-11-20T01:57:01;-4.60;99.90
10980;DHT22;5543;51.734;8.744;2022-11-20T01:59:31;-4.60;99.90
10980;DHT22;5543;51.734;8.744;2022-11-20T02:01:59;-4.30;99.90
10980;DHT22;5543;51.734;8.744;2022-11-20T02:04:27;-4.60;99.90
10980;DHT22;5543;51.734;8.744;2022-11-20T02:06:59;-4.60;99.90
10980;DHT22;5543;51.734;8.744;2022-11-20T02:09:28;-4.60;99.90
10980;DHT22;5543;51.734;8.744;2022-11-20T02:11:57;-4.60;99.90
10980;DHT22;5543;51.734;8.744;2022-11-20T02:14:26;-4.70;99.90
10980;DHT22;5543;51.734;8.744;2022-11-20T02:16:54;-4.70;99.90
10980;DHT22;5543;51.734;8.744;2022-11-20T02:19:26;-4.70;99.90
10980;DHT22;5543;51.734;8.744;2022-11-20T02:22:02;-4.70;99.90
10980;DHT22;5543;51.734;8.744;2022-11-20T02:24:34;-4.70;99.90
10980;DHT22;5543;51.734;8.744;2022-11-20T02:27:04;-4.70;99.90
10980;DHT22;5543;51.734;8.744;2022-11-20T02:29:37;-4.70;99.90
10980;DHT22;5543;51.734;8.744;2022-11-20T02:32:06;-4.70;99.90
10980;DHT22;5543;51.734;8.744;2022-11-20T02:34:34;-4.80;99.90
10980;DHT22;5543;51.734;8.744;2022-11-20T02:37:02;-4.80;99.90
10980;DHT22;5543;51.734;8.744;2022-11-20T02:39:30;-4.80;99.90
10980;DHT22;5543;51.734;8.744;2022-11-20T02:42:01;-4.80;99.90
10980;DHT22;5543;51.734;8.744;2022-11-20T02:44:29;-4.90;99.90
10980;DHT22;5543;51.734;8.744;2022-11-20T02:46:57;-4.90;99.90
10980;DHT22;5543;51.734;8.744;2022-11-20T02:49:26;-5.00;99.90
10980;DHT22;5543;51.734;8.744;2022-11-20T02:51:54;-5.00;99.90
10980;DHT22;5543;51.734;8.744;2022-11-20T02:54:22;-5.00;99.90
10980;DHT22;5543;51.734;8.744;2022-11-20T02:56:50;-5.00;99.90
10980;DHT22;5543;51.734;8.744;2022-11-20T02:59:20;-5.00;99.90
10980;DHT22;5543;51.734;8.744;2022-11-20T03:01:49;-5.00;99.90
10980;DHT22;5543;51.734;8.744;2022-11-20T03:04:17;-5.00;99.90
10980;DHT22;5543;51.734;8.744;2022-11-20T03:06:45;-5.10;99.90
10980;DHT22;5543;51.734;8.744;2022-11-20T03:09:13;-5.10;99.90
10980;DHT22;5543;51.734;8.744;2022-11-20T03:11:41;-5.10;99.90
10980;DHT22;5543;51.734;8.744;2022-11-20T03:14:09;-5.20;99.90
10980;DHT22;5543;51.734;8.744;2022-11-20T03:16:39;-5.20;99.90
10980;DHT22;5543;51.734;8.744;2022-11-20T03:19:07;-5.20;99.90
10980;DHT22;5543;51.734;8.744;2022-11-20T03:21:36;-5.20;99.90
10980;DHT22;5543;51.734;8.744;2022-11-20T03:24:04;-5.30;99.90
10980;DHT22;5543;51.734;8.744;2022-11-20T03:26:33;-5.30;99.90
10980;DHT22;5543;51.734;8.744;2022-11-20T03:29:02;-5.30;99.90
10980;DHT22;5543;51.734;8.744;2022-11-20T03:31:33;-5.30;99.90
10980;DHT22;5543;51.734;8.744;2022-11-20T03:34:03;-5.10;99.90
10980;DHT22;5543;51.734;8.744;2022-11-20T03:36:32;-5.30;99.90
10980;DHT22;5543;51.734;8.744;2022-11-20T03:39:00;-5.30;99.90
10980;DHT22;5543;51.734;8.744;2022-11-20T03:41:30;-5.30;99.90
10980;DHT22;5543;51.734;8.744;2022-11-20T03:43:59;-5.30;99.90
10980;DHT22;5543;51.734;8.744;2022-11-20T03:46:28;-5.20;99.90
10980;DHT22;5543;51.734;8.744;2022-11-20T03:48:57;-5.20;99.90
10980;DHT22;5543;51.734;8.744;2022-11-20T03:51:28;-5.30;99.90
10980;DHT22;5543;51.734;8.744;2022-11-20T03:53:58;-5.30;99.90
10980;DHT22;5543;51.734;8.744;2022-11-20T03:56:28;-5.30;99.90
10980;DHT22;5543;51.734;8.744;2022-11-20T03:58:57;-5.20;99.90
10980;DHT22;5543;51.734;8.744;2022-11-20T04:01:26;-5.30;99.90
10980;DHT22;5543;51.734;8.744;2022-11-20T04:03:56;-5.30;99.90
10980;DHT22;5543;51.734;8.744;2022-11-20T04:06:29;-5.30;99.90
10980;DHT22;5543;51.734;8.744;2022-11-20T04:08:57;-5.40;99.90
10980;DHT22;5543;51.734;8.744;2022-11-20T04:11:27;-5.40;99.90
10980;DHT22;5543;51.734;8.744;2022-11-20T04:13:58;-5.40;99.90
10980;DHT22;5543;51.734;8.744;2022-11-20T04:16:28;-5.40;99.90
10980;DHT22;5543;51.734;8.744;2022-11-20T04:18:58;-5.40;99.90
10980;DHT22;5543;51.734;8.744;2022-11-20T04:21:28;-5.40;99.90
10980;DHT22;5543;51.734;8.744;2022-11-20T04:23:56;-5.40;99.90
10980;DHT22;5543;51.734;8.744;2022-11-20T04:26:26;-5.50;99.90
10980;DHT22;5543;51.734;8.744;2022-11-20T04:28:55;-5.50;99.90
10980;DHT22;5543;51.734;8.744;2022-11-20T04:31:26;-5.50;99.90
10980;DHT22;5543;51.734;8.744;2022-11-20T04:33:55;-5.60;99.90
10980;DHT22;5543;51.734;8.744;2022-11-20T04:36:25;-5.50;99.90
10980;DHT22;5543;51.734;8.744;2022-11-20T04:38:56;-5.90;99.90
10980;DHT22;5543;51.734;8.744;2022-11-20T04:41:26;-5.60;99.90
10980;DHT22;5543;51.734;8.744;2022-11-20T04:43:56;-5.60;99.90
10980;DHT22;5543;51.734;8.744;2022-11-20T04:46:27;-5.60;99.90
10980;DHT22;5543;51.734;8.744;2022-11-20T04:48:55;-5.60;99.90
10980;DHT22;5543;51.734;8.744;2022-11-20T04:51:23;-5.50;99.90
10980;DHT22;5543;51.734;8.744;2022-11-20T04:53:51;-5.50;99.90
10980;DHT22;5543;51.734;8.744;2022-11-20T04:56:20;-5.70;99.90
10980;DHT22;5543;51.734;8.744;2022-11-20T04:58:49;-5.70;99.90
10980;DHT22;5543;51.734;8.744;2022-11-20T05:01:19;-5.70;99.90
10980;DHT22;5543;51.734;8.744;2022-11-20T05:03:47;-5.70;99.90
10980;DHT22;5543;51.734;8.744;2022-11-20T05:06:18;-5.70;99.90
10980;DHT22;5543;51.734;8.744;2022-11-20T05:08:46;-5.70;99.90
10980;DHT22;5543;51.734;8.744;2022-11-20T05:11:15;-5.70;99.90
10980;DHT22;5543;51.734;8.744;2022-11-20T05:13:45;-5.70;99.90
10980;DHT22;5543;51.734;8.744;2022-11-20T05:16:16;-5.70;99.90
10980;DHT22;5543;51.734;8.744;2022-11-20T05:18:44;-5.40;99.90
10980;DHT22;5543;51.734;8.744;2022-11-20T05:21:13;-5.60;99.90
10980;DHT22;5543;51.734;8.744;2022-11-20T05:23:41;-5.60;99.90
10980;DHT22;5543;51.734;8.744;2022-11-20T05:26:13;-5.50;99.90
10980;DHT22;5543;51.734;8.744;2022-11-20T05:28:42;-5.40;99.90
10980;DHT22;5543;51.734;8.744;2022-11-20T05:31:13;-5.30;99.90
10980;DHT22;5543;51.734;8.744;2022-11-20T05:33:42;-5.20;99.90
10980;DHT22;5543;51.734;8.744;2022-11-20T05:36:11;-5.10;99.90
10980;DHT22;5543;51.734;8.744;2022-11-20T05:38:41;-5.10;99.90
10980;DHT22;5543;51.734;8.744;2022-11-20T05:41:11;-5.10;99.90
10980;DHT22;5543;51.734;8.744;2022-11-20T05:43:40;-5.00;99.90
10980;DHT22;5543;51.734;8.744;2022-11-20T05:46:12;-5.00;99.90
10980;DHT22;5543;51.734;8.744;2022-11-20T05:48:41;-4.90;99.90
10980;DHT22;5543;51.734;8.744;2022-11-20T05:51:13;-4.90;99.90
10980;DHT22;5543;51.734;8.744;2022-11-20T05:53:42;-4.60;99.90
10980;DHT22;5543;51.734;8.744;2022-11-20T05:56:16;-4.70;99.90
10980;DHT22;5543;51.734;8.744;2022-11-20T05:58:44;-4.60;99.90
10980;DHT22;5543;51.734;8.744;2022-11-20T06:01:16;-4.70;99.90
10980;DHT22;5543;51.734;8.744;2022-11-20T06:03:44;-4.70;99.90
10980;DHT22;5543;51.734;8.744;2022-11-20T06:06:15;-4.60;99.90
10980;DHT22;5543;51.734;8.744;2022-11-20T06:08:43;-4.60;99.90
10980;DHT22;5543;51.734;8.744;2022-11-20T06:11:13;-4.60;99.90
10980;DHT22;5543;51.734;8.744;2022-11-20T06:13:42;-4.60;99.90
10980;DHT22;5543;51.734;8.744;2022-11-20T06:16:12;-4.50;99.90
10980;DHT22;5543;51.734;8.744;2022-11-20T06:18:42;-4.50;99.90
10980;DHT22;5543;51.734;8.744;2022-11-20T06:21:12;-4.40;99.90
10980;DHT22;5543;51.734;8.744;2022-11-20T06:23:40;-4.30;99.90
10980;DHT22;5543;51.734;8.744;2022-11-20T06:26:11;-4.30;99.90
10980;DHT22;5543;51.734;8.744;2022-11-20T06:28:39;-4.20;99.90
10980;DHT22;5543;51.734;8.744;2022-11-20T06:31:10;-4.20;99.90
10980;DHT22;5543;51.734;8.744;2022-11-20T06:33:39;-4.30;99.90
10980;DHT22;5543;51.734;8.744;2022-11-20T06:36:10;-4.10;99.90
10980;DHT22;5543;51.734;8.744;2022-11-20T06:38:38;-4.10;99.90
10980;DHT22;5543;51.734;8.744;2022-11-20T06:41:08;-4.00;99.90
10980;DHT22;5543;51.734;8.744;2022-11-20T06:43:38;-3.70;99.90
10980;DHT22;5543;51.734;8.744;2022-11-20T06:46:06;-4.00;99.90
10980;DHT22;5543;51.734;8.744;2022-11-20T06:48:34;-4.00;99.90
10980;DHT22;5543;51.734;8.744;2022-11-20T06:51:03;-4.00;99.90
10980;DHT22;5543;51.734;8.744;2022-11-20T06:53:33;-4.00;99.90
10980;DHT22;5543;51.734;8.744;2022-11-20T06:56:02;-4.00;99.90
10980;DHT22;5543;51.734;8.744;2022-11-20T06:58:32;-4.00;99.90
10980;DHT22;5543;51.734;8.744;2022-11-20T07:01:01;-3.90;99.90
10980;DHT22;5543;51.734;8.744;2022-11-20T07:03:30;-3.90;99.90
10980;DHT22;5543;51.734;8.744;2022-11-20T07:05:58;-3.90;99.90
10980;DHT22;5543;51.734;8.744;2022-11-20T07:08:28;-3.80;99.90
10980;DHT22;5543;51.734;8.744;2022-11-20T07:10:59;-3.60;99.90
10980;DHT22;5543;51.734;8.744;2022-11-20T07:13:28;-3.70;99.90
10980;DHT22;5543;51.734;8.744;2022-11-20T07:15:59;-3.60;99.90
10980;DHT22;5543;51.734;8.744;2022-11-20T07:18:27;-3.50;99.90
10980;DHT22;5543;51.734;8.744;2022-11-20T07:20:55;-3.50;99.90
10980;DHT22;5543;51.734;8.744;2022-11-20T07:23:23;-3.40;99.90
10980;DHT22;5543;51.734;8.744;2022-11-20T07:25:51;-3.00;99.90
10980;DHT22;5543;51.734;8.744;2022-11-20T07:28:21;-3.20;99.90
10980;DHT22;5543;51.734;8.744;2022-11-20T07:30:50;-3.20;99.90
10980;DHT22;5543;51.734;8.744;2022-11-20T07:33:18;-3.20;99.90
10980;DHT22;5543;51.734;8.744;2022-11-20T07:35:46;-3.10;99.90
10980;DHT22;5543;51.734;8.744;2022-11-20T07:38:15;-2.90;99.90
10980;DHT22;5543;51.734;8.744;2022-11-20T07:40:43;-2.90;99.90
10980;DHT22;5543;51.734;8.744;2022-11-20T07:43:11;-2.80;99.90
10980;DHT22;5543;51.734;8.744;2022-11-20T07:45:40;-2.70;99.90
10980;DHT22;5543;51.734;8.744;2022-11-20T07:48:08;-2.70;99.90
10980;DHT22;5543;51.734;8.744;2022-11-20T07:50:36;-2.60;99.90
10980;DHT22;5543;51.734;8.744;2022-11-20T07:53:05;-2.50;99.90
10980;DHT22;5543;51.734;8.744;2022-11-20T07:55:33;-2.40;99.90
10980;DHT22;5543;51.734;8.744;2022-11-20T07:58:01;-2.30;99.90
10980;DHT22;5543;51.734;8.744;2022-11-20T08:00:29;-2.30;99.90
10980;DHT22;5543;51.734;8.744;2022-11-20T08:02:59;-2.20;99.90
10980;DHT22;5543;51.734;8.744;2022-11-20T08:05:27;-2.10;99.90
10980;DHT22;5543;51.734;8.744;2022-11-20T08:07:55;-2.00;99.90
10980;DHT22;5543;51.734;8.744;2022-11-20T08:10:26;-2.00;99.90
10980;DHT22;5543;51.734;8.744;2022-11-20T08:12:54;-1.90;99.90
10980;DHT22;5543;51.734;8.744;2022-11-20T08:15:39;-1.80;99.90
10980;DHT22;5543;51.734;8.744;2022-11-20T08:18:10;-1.60;99.90
10980;DHT22;5543;51.734;8.744;2022-11-20T08:20:56;-1.60;99.90
10980;DHT22;5543;51.734;8.744;2022-11-20T08:23:24;-1.60;99.90
10980;DHT22;5543;51.734;8.744;2022-11-20T08:25:52;-1.60;99.90
10980;DHT22;5543;51.734;8.744;2022-11-20T08:28:21;-1.60;99.90
10980;DHT22;5543;51.734;8.744;2022-11-20T08:30:49;-1.60;99.90
10980;DHT22;5543;51.734;8.744;2022-11-20T08:33:19;-1.50;99.90
10980;DHT22;5543;51.734;8.744;2022-11-20T08:35:47;-1.40;99.90
10980;DHT22;5543;51.734;8.744;2022-11-20T08:38:15;-1.40;99.90
10980;DHT22;5543;51.734;8.744;2022-11-20T08:40:43;-1.30;99.90
10980;DHT22;5543;51.734;8.744;2022-11-20T08:43:32;-1.20;99.90
10980;DHT22;5543;51.734;8.744;2022-11-20T08:46:00;-1.20;99.90
10980;DHT22;5543;51.734;8.744;2022-11-20T08:48:30;-1.10;99.90
10980;DHT22;5543;51.734;8.744;2022-11-20T08:50:58;-1.00;99.90
10980;DHT22;5543;51.734;8.744;2022-11-20T08:53:27;-1.00;99.90
10980;DHT22;5543;51.734;8.744;2022-11-20T08:55:56;-1.00;99.90
10980;DHT22;5543;51.734;8.744;2022-11-20T08:58:26;-0.90;99.90
10980;DHT22;5543;51.734;8.744;2022-11-20T09:00:54;-0.80;99.90
10980;DHT22;5543;51.734;8.744;2022-11-20T09:03:23;-0.70;99.90
10980;DHT22;5543;51.734;8.744;2022-11-20T09:06:01;-0.60;99.90
10980;DHT22;5543;51.734;8.744;2022-11-20T09:08:30;-0.40;99.90
10980;DHT22;5543;51.734;8.744;2022-11-20T09:10:58;-0.20;99.90
10980;DHT22;5543;51.734;8.744;2022-11-20T09:13:28;-0.10;99.90
10980;DHT22;5543;51.734;8.744;2022-11-20T09:15:58;0.10;99.90
10980;DHT22;5543;51.734;8.744;2022-11-20T09:18:27;0.30;99.90
10980;DHT22;5543;51.734;8.744;2022-11-20T09:20:57;0.50;99.90
10980;DHT22;5543;51.734;8.744;2022-11-20T09:23:30;0.50;99.90
10980;DHT22;5543;51.734;8.744;2022-11-20T09:26:02;0.70;99.90
10980;DHT22;5543;51.734;8.744;2022-11-20T09:28:31;0.80;99.90
10980;DHT22;5543;51.734;8.744;2022-11-20T09:30:59;1.30;99.90
10980;DHT22;5543;51.734;8.744;2022-11-20T09:33:27;2.10;99.90
10980;DHT22;5543;51.734;8.744;2022-11-20T09:35:55;3.10;99.90
10980;DHT22;5543;51.734;8.744;2022-11-20T09:38:23;3.90;99.90
10980;DHT22;5543;51.734;8.744;2022-11-20T09:40:56;3.80;99.90
10980;DHT22;5543;51.734;8.744;2022-11-20T09:43:32;3.70;99.90
10980;DHT22;5543;51.734;8.744;2022-11-20T09:46:16;3.80;99.90
10980;DHT22;5543;51.734;8.744;2022-11-20T09:49:06;4.20;99.90
10980;DHT22;5543;51.734;8.744;2022-11-20T09:51:45;4.60;99.90
10980;DHT22;5543;51.734;8.744;2022-11-20T09:54:17;5.80;99.90
10980;DHT22;5543;51.734;8.744;2022-11-20T09:56:50;6.80;98.70
10980;DHT22;5543;51.734;8.744;2022-11-20T09:59:30;6.70;97.20
10980;DHT22;5543;51.734;8.744;2022-11-20T10:02:12;6.70;96.60
10980;DHT22;5543;51.734;8.744;2022-11-20T10:04:47;6.20;97.20
10980;DHT22;5543;51.734;8.744;2022-11-20T10:07:21;5.70;97.60
10980;DHT22;5543;51.734;8.744;2022-11-20T10:09:59;5.40;97.90
10980;DHT22;5543;51.734;8.744;2022-11-20T10:12:45;4.50;98.80
10980;DHT22;5543;51.734;8.744;2022-11-20T10:15:25;4.30;99.60
10980;DHT22;5543;51.734;8.744;2022-11-20T10:18:06;3.50;99.90
10980;DHT22;5543;51.734;8.744;2022-11-20T10:20:46;3.20;99.90
10980;DHT22;5543;51.734;8.744;2022-11-20T10:23:35;3.10;99.90
10980;DHT22;5543;51.734;8.744;2022-11-20T10:26:17;2.80;99.90
10980;DHT22;5543;51.734;8.744;2022-11-20T10:29:09;2.80;99.90
10980;DHT22;5543;51.734;8.744;2022-11-20T10:31:40;2.90;99.90
10980;DHT22;5543;51.734;8.744;2022-11-20T10:34:18;2.70;99.90
10980;DHT22;5543;51.734;8.744;2022-11-20T10:36:52;2.60;99.90
10980;DHT22;5543;51.734;8.744;2022-11-20T10:39:30;2.90;99.90
10980;DHT22;5543;51.734;8.744;2022-11-20T10:41:59;3.20;99.90
10980;DHT22;5543;51.734;8.744;2022-11-20T10:44:30;3.50;99.90
10980;DHT22;5543;51.734;8.744;2022-11-20T10:47:22;3.60;99.90
10980;DHT22;5543;51.734;8.744;2022-11-20T10:49:52;4.30;99.90
10980;DHT22;5543;51.734;8.744;2022-11-20T10:52:26;4.40;99.90
10980;DHT22;5543;51.734;8.744;2022-11-20T10:55:05;4.50;99.90
10980;DHT22;5543;51.734;8.744;2022-11-20T10:57:52;4.80;99.90
10980;DHT22;5543;51.734;8.744;2022-11-20T11:00:23;4.80;99.90
10980;DHT22;5543;51.734;8.744;2022-11-20T11:02:52;4.70;99.90
10980;DHT22;5543;51.734;8.744;2022-11-20T11:05:27;4.90;99.90
10980;DHT22;5543;51.734;8.744;2022-11-20T11:07:59;4.70;99.90
10980;DHT22;5543;51.734;8.744;2022-11-20T11:10:32;4.70;99.90
10980;DHT22;5543;51.734;8.744;2022-11-20T11:13:04;4.70;99.90
10980;DHT22;5543;51.734;8.744;2022-11-20T11:15:39;4.70;99.90
10980;DHT22;5543;51.734;8.744;2022-11-20T11:18:09;4.50;99.90
10980;DHT22;5543;51.734;8.744;2022-11-20T11:20:38;4.40;99.90
10980;DHT22;5543;51.734;8.744;2022-11-20T11:23:26;4.30;99.90
10980;DHT22;5543;51.734;8.744;2022-11-20T11:25:58;4.00;99.90
10980;DHT22;5543;51.734;8.744;2022-11-20T11:28:27;4.10;99.90
10980;DHT22;5543;51.734;8.744;2022-11-20T11:30:57;4.10;99.90
10980;DHT22;5543;51.734;8.744;2022-11-20T11:33:26;4.10;99.90
10980;DHT22;5543;51.734;8.744;2022-11-20T11:35:56;4.10;99.90
10980;DHT22;5543;51.734;8.744;2022-11-20T11:38:29;4.20;99.90
10980;DHT22;5543;51.734;8.744;2022-11-20T11:40:58;4.10;99.90
10980;DHT22;5543;51.734;8.744;2022-11-20T11:43:29;4.10;99.90
10980;DHT22;5543;51.734;8.744;2022-11-20T11:46:29;4.20;99.90
10980;DHT22;5543;51.734;8.744;2022-11-20T11:48:59;4.40;99.90
10980;DHT22;5543;51.734;8.744;2022-11-20T11:51:47;4.10;99.90
10980;DHT22;5543;51.734;8.744;2022-11-20T11:54:23;4.30;99.90
10980;DHT22;5543;51.734;8.744;2022-11-20T11:56:53;4.20;99.90
10980;DHT22;5543;51.734;8.744;2022-11-20T11:59:28;4.20;99.90
10980;DHT22;5543;51.734;8.744;2022-11-20T12:02:15;4.40;99.90
10980;DHT22;5543;51.734;8.744;2022-11-20T12:04:48;4.50;99.90
10980;DHT22;5543;51.734;8.744;2022-11-20T12:07:25;4.60;99.90
10980;DHT22;5543;51.734;8.744;2022-11-20T12:10:17;4.60;99.90
10980;DHT22;5543;51.734;8.744;2022-11-20T12:12:51;4.70;99.90
10980;DHT22;5543;51.734;8.744;2022-11-20T12:15:26;5.00;99.90
10980;DHT22;5543;51.734;8.744;2022-11-20T12:17:57;4.90;99.90
10980;DHT22;5543;51.734;8.744;2022-11-20T12:20:30;4.80;99.90
10980;DHT22;5543;51.734;8.744;2022-11-20T12:23:04;4.90;99.90
10980;DHT22;5543;51.734;8.744;2022-11-20T12:25:36;5.00;99.90
10980;DHT22;5543;51.734;8.744;2022-11-20T12:31:23;5.10;99.90
10980;DHT22;5543;51.734;8.744;2022-11-20T12:34:05;5.10;99.90
10980;DHT22;5543;51.734;8.744;2022-11-20T12:36:40;5.00;99.90
10980;DHT22;5543;51.734;8.744;2022-11-20T12:39:21;4.70;99.90
10980;DHT22;5543;51.734;8.744;2022-11-20T12:42:07;4.30;99.90
10980;DHT22;5543;51.734;8.744;2022-11-20T12:45:14;4.00;99.90
10980;DHT22;5543;51.734;8.744;2022-11-20T12:48:16;3.80;99.90
10980;DHT22;5543;51.734;8.744;2022-11-20T12:50:54;3.70;99.90
10980;DHT22;5543;51.734;8.744;2022-11-20T12:53:52;3.60;99.90
10980;DHT22;5543;51.734;8.744;2022-11-20T12:56:30;3.50;99.90
10980;DHT22;5543;51.734;8.744;2022-11-20T12:59:10;3.40;99.90
10980;DHT22;5543;51.734;8.744;2022-11-20T13:01:49;3.30;99.90
10980;DHT22;5543;51.734;8.744;2022-11-20T13:04:28;3.20;99.90
10980;DHT22;5543;51.734;8.744;2022-11-20T13:07:04;3.10;99.90
10980;DHT22;5543;51.734;8.744;2022-11-20T13:09:34;3.20;99.90
10980;DHT22;5543;51.734;8.744;2022-11-20T13:12:07;3.30;99.90
10980;DHT22;5543;51.734;8.744;2022-11-20T13:14:41;3.30;99.90
10980;DHT22;5543;51.734;8.744;2022-11-20T13:17:14;3.40;99.90
10980;DHT22;5543;51.734;8.744;2022-11-20T13:19:54;3.50;99.90
10980;DHT22;5543;51.734;8.744;2022-11-20T13:22:28;3.60;99.90
10980;DHT22;5543;51.734;8.744;2022-11-20T13:24:56;3.60;99.90
10980;DHT22;5543;51.734;8.744;2022-11-20T13:27:24;3.60;99.90
10980;DHT22;5543;51.734;8.744;2022-11-20T13:30:01;3.60;99.90
10980;DHT22;5543;51.734;8.744;2022-11-20T13:32:30;3.20;99.90
10980;DHT22;5543;51.734;8.744;2022-11-20T13:35:00;3.20;99.80
10980;DHT22;5543;51.734;8.744;2022-11-20T13:37:32;3.20;99.80
10980;DHT22;5543;51.734;8.744;2022-11-20T13:40:20;3.40;99.90
10980;DHT22;5543;51.734;8.744;2022-11-20T13:43:01;3.40;99.90
10980;DHT22;5543;51.734;8.744;2022-11-20T13:45:31;3.50;99.50
10980;DHT22;5543;51.734;8.744;2022-11-20T13:48:03;3.40;99.40
10980;DHT22;5543;51.734;8.744;2022-11-20T13:50:43;3.30;99.60
10980;DHT22;5543;51.734;8.744;2022-11-20T13:53:27;3.20;99.90
10980;DHT22;5543;51.734;8.744;2022-11-20T13:56:01;3.10;99.90
10980;DHT22;5543;51.734;8.744;2022-11-20T13:58:40;3.00;99.60
10980;DHT22;5543;51.734;8.744;2022-11-20T14:01:16;3.00;99.90
10980;DHT22;5543;51.734;8.744;2022-11-20T14:03:47;2.80;99.90
10980;DHT22;5543;51.734;8.744;2022-11-20T14:06:42;2.70;99.90
10980;DHT22;5543;51.734;8.744;2022-11-20T14:09:26;2.70;99.90
10980;DHT22;5543;51.734;8.744;2022-11-20T14:11:55;2.50;99.90
10980;DHT22;5543;51.734;8.744;2022-11-20T14:14:24;2.60;99.90
10980;DHT22;5543;51.734;8.744;2022-11-20T14:17:04;2.50;99.90
10980;DHT22;5543;51.734;8.744;2022-11-20T14:19:33;2.50;99.90
10980;DHT22;5543;51.734;8.744;2022-11-20T14:22:16;2.50;99.90
10980;DHT22;5543;51.734;8.744;2022-11-20T14:24:47;2.50;99.90
10980;DHT22;5543;51.734;8.744;2022-11-20T14:27:17;2.50;99.90
10980;DHT22;5543;51.734;8.744;2022-11-20T14:29:47;2.40;99.90
10980;DHT22;5543;51.734;8.744;2022-11-20T14:32:17;2.50;99.90
10980;DHT22;5543;51.734;8.744;2022-11-20T14:34:49;2.30;99.90
10980;DHT22;5543;51.734;8.744;2022-11-20T14:37:20;2.50;99.90
10980;DHT22;5543;51.734;8.744;2022-11-20T14:39:52;2.40;99.90
10980;DHT22;5543;51.734;8.744;2022-11-20T14:42:22;2.40;99.90
10980;DHT22;5543;51.734;8.744;2022-11-20T14:44:52;2.30;99.90
10980;DHT22;5543;51.734;8.744;2022-11-20T14:47:23;2.30;99.90
10980;DHT22;5543;51.734;8.744;2022-11-20T14:49:53;2.30;99.90
10980;DHT22;5543;51.734;8.744;2022-11-20T14:52:23;2.20;99.90
10980;DHT22;5543;51.734;8.744;2022-11-20T14:54:55;2.20;99.90
10980;DHT22;5543;51.734;8.744;2022-11-20T14:57:27;2.20;99.90
10980;DHT22;5543;51.734;8.744;2022-11-20T15:00:17;2.30;99.90
10980;DHT22;5543;51.734;8.744;2022-11-20T15:02:47;2.20;99.90
10980;DHT22;5543;51.734;8.744;2022-11-20T15:05:17;2.20;99.90
10980;DHT22;5543;51.734;8.744;2022-11-20T15:07:48;2.20;99.90
10980;DHT22;5543;51.734;8.744;2022-11-20T15:10:22;2.20;99.90
10980;DHT22;5543;51.734;8.744;2022-11-20T15:12:52;2.10;99.90
10980;DHT22;5543;51.734;8.744;2022-11-20T15:15:25;2.10;99.90
10980;DHT22;5543;51.734;8.744;2022-11-20T15:17:55;2.20;99.90
10980;DHT22;5543;51.734;8.744;2022-11-20T15:20:26;2.20;99.90
10980;DHT22;5543;51.734;8.744;2022-11-20T15:22:55;2.10;99.90
10980;DHT22;5543;51.734;8.744;2022-11-20T15:25:25;2.20;99.90
10980;DHT22;5543;51.734;8.744;2022-11-20T15:27:55;2.10;99.90
10980;DHT22;5543;51.734;8.744;2022-11-20T15:30:24;2.10;99.90
10980;DHT22;5543;51.734;8.744;2022-11-20T15:32:52;2.10;99.90
10980;DHT22;5543;51.734;8.744;2022-11-20T15:35:20;2.00;99.90
10980;DHT22;5543;51.734;8.744;2022-11-20T15:37:48;2.10;99.90
10980;DHT22;5543;51.734;8.744;2022-11-20T15:40:16;2.00;99.90
10980;DHT22;5543;51.734;8.744;2022-11-20T15:42:46;2.10;99.90
10980;DHT22;5543;51.734;8.744;2022-11-20T15:45:30;2.00;99.90
10980;DHT22;5543;51.734;8.744;2022-11-20T15:47:59;2.00;99.90
10980;DHT22;5543;51.734;8.744;2022-11-20T15:50:33;2.00;99.90
10980;DHT22;5543;51.734;8.744;2022-11-20T15:53:02;2.00;99.90
10980;DHT22;5543;51.734;8.744;2022-11-20T15:55:30;2.00;99.90
10980;DHT22;5543;51.734;8.744;2022-11-20T15:58:01;2.00;99.90
10980;DHT22;5543;51.734;8.744;2022-11-20T16:00:29;2.00;99.90
10980;DHT22;5543;51.734;8.744;2022-11-20T16:02:57;2.20;99.90
10980;DHT22;5543;51.734;8.744;2022-11-20T16:05:28;2.00;99.90
10980;DHT22;5543;51.734;8.744;2022-11-20T16:07:56;1.90;99.90
10980;DHT22;5543;51.734;8.744;2022-11-20T16:10:25;1.90;99.90
10980;DHT22;5543;51.734;8.744;2022-11-20T16:12:53;1.90;99.90
10980;DHT22;5543;51.734;8.744;2022-11-20T16:15:40;1.90;99.90
10980;DHT22;5543;51.734;8.744;2022-11-20T16:18:17;1.90;99.90
10980;DHT22;5543;51.734;8.744;2022-11-20T16:20:47;1.90;99.90
10980;DHT22;5543;51.734;8.744;2022-11-20T16:23:16;1.90;99.90
10980;DHT22;5543;51.734;8.744;2022-11-20T16:25:45;2.00;99.90